Welcome to Northern Hawkes Bay. New Zealand.
PWS Header
      nz Flag



Hit Counter


W3C Valid W3C Valid logo


    Wairoa

Select any of the Stations below to visit their websites.










Historic Data from Weather Underground
Select the location of interest below. Wairoa is the default. Please have patience, this Data is slow to load in.
Northern Hawkes Bay Historical Data
Daily Summary for May 13, 2017 Units:  English    Metric   Both
« Previous Day
Next Day »
Daily Weekly Monthly Yearly Custom
  High: Low: Average:
Temperature: 58.3 °F 49.3 °F 52.2 °F
Dew Point: 53.2 °F 45.9 °F 49.1 °F
Humidity: 99% 79% 89%
Wind Speed: 25.1mph 4.5mph 14.8mph
Wind Gust: 37.4mph - -
Wind- - SW
Pressure: 30.2 in 29.8 in -
Precipitation: 0.69 in    
Historical Graphs
 
 
Tabular Data for May 13, 2017
Time Temperature Dew Point Pressure Wind Wind Speed Wind Gust Humidity Rainfall Rate (Hourly) solar
00:00 57.9 °F 52.5 °F 29.8 in SSW 20.6 mph 30.4 mph 82% 0 in 0 W/m2
00:05 58.1 °F 52.3 °F 29.8 in SSW 13 mph 31.1 mph 81% 0 in 0 W/m2
00:10 58.1 °F 52.5 °F 29.8 in SSW 22.1 mph 31.1 mph 82% 0 in 0 W/m2
00:15 58.3 °F 52.5 °F 29.8 in SW 21.3 mph 35.8 mph 81% 0 in 0 W/m2
00:20 58.3 °F 52.5 °F 29.8 in SSW 19.7 mph 35.8 mph 81% 0 in 0 W/m2
00:25 57.9 °F 52.2 °F 29.8 in SSW 18.3 mph 35.8 mph 81% 0 in 0 W/m2
00:30 57.9 °F 51.8 °F 29.8 in SSW 20.6 mph 34.9 mph 80% 0 in 0 W/m2
00:35 57.6 °F 51.1 °F 29.8 in SSW 18.3 mph 34.9 mph 79% 0 in 0 W/m2
00:40 57.6 °F 51.4 °F 29.8 in SSW 18.3 mph 31.1 mph 80% 0 in 0 W/m2
00:45 57.7 °F 51.6 °F 29.8 in SSW 15.2 mph 31.1 mph 80% 0 in 0 W/m2
00:50 57.9 °F 51.8 °F 29.8 in SSW 21.3 mph 36.5 mph 80% 0 in 0 W/m2
00:55 58.3 °F 52.5 °F 29.8 in SSW 19 mph 36.5 mph 81% 0 in 0 W/m2
01:00 57.4 °F 52.5 °F 29.8 in SSW 14.5 mph 36.5 mph 84% 0 in 0 W/m2
01:06 56.3 °F 52.9 °F 29.8 in SW 12.1 mph 31.1 mph 88% 0 in 0 W/m2
01:11 57.2 °F 52.3 °F 29.8 in SW 19 mph 25.1 mph 84% 0 in 0 W/m2
01:16 57.9 °F 52.9 °F 29.8 in SSW 13 mph 27.3 mph 83% 0 in 0 W/m2
01:17 58.1 °F 53.2 °F 29.8 in SSW 19.7 mph 30.4 mph 84% 0 in 0 W/m2
01:22 56.5 °F 52.7 °F 29.8 in SW 14.5 mph 30.4 mph 87% 0 in 0 W/m2
01:27 57.4 °F 52.9 °F 29.8 in SW 17.4 mph 30.4 mph 85% 0 in 0 W/m2
01:32 58.1 °F 52.5 °F 29.8 in SSW 23.5 mph 32 mph 82% 0 in 0 W/m2
01:37 57.6 °F 52.2 °F 29.8 in SSW 23.5 mph 32 mph 82% 0 in 0 W/m2
01:42 57.6 °F 51.8 °F 29.8 in SSW 23.5 mph 37.4 mph 81% 0 in 0 W/m2
01:47 57.4 °F 52 °F 29.8 in SSW 15.9 mph 37.4 mph 82% 0 in 0 W/m2
01:52 57 °F 52.9 °F 29.8 in SSW 22.1 mph 32.7 mph 86% 0 in 0 W/m2
01:57 56.5 °F 52.3 °F 29.8 in SSW 18.3 mph 34.2 mph 86% 0 in 0 W/m2
02:02 56.5 °F 52.7 °F 29.8 in SSW 18.3 mph 34.2 mph 87% 0 in 0 W/m2
02:07 56.7 °F 52.5 °F 29.8 in SSW 19.7 mph 34.9 mph 86% 0 in 0 W/m2
02:12 56.5 °F 52 °F 29.8 in SW 13.6 mph 34.9 mph 85% 0 in 0 W/m2
02:17 56.3 °F 52.5 °F 29.8 in SW 22.8 mph 36.5 mph 87% 0 in 0 W/m2
02:23 54.5 °F 51.6 °F 29.8 in SW 20.6 mph 36.5 mph 90% 0 in 0 W/m2
02:28 54.1 °F 52 °F 29.8 in SW 20.6 mph 32 mph 92% 0 in 0 W/m2
02:45 53.1 °F 52 °F 29.8 in SW 15.2 mph 34.9 mph 96% 0.01 in 0 W/m2
02:50 52.9 °F 52.2 °F 29.8 in SW 14.5 mph 28.9 mph 97% 0.01 in 0 W/m2
02:55 52.7 °F 52 °F 29.8 in SW 9.8 mph 28.9 mph 97% 0.02 in 0 W/m2
03:00 52.2 °F 51.3 °F 29.8 in SW 11.4 mph 28.9 mph 97% 0.02 in 0 W/m2
03:05 52.2 °F 51.6 °F 29.8 in SW 8.3 mph 37.4 mph 98% 0.05 in 0 W/m2
03:10 52 °F 51.4 °F 29.8 in SW 25.1 mph 37.4 mph 98% 0.07 in 0 W/m2
03:15 51.8 °F 51.3 °F 29.8 in SW 18.3 mph 29.8 mph 98% 0.09 in 0 W/m2
03:20 51.4 °F 51.3 °F 29.8 in SW 17.4 mph 29.8 mph 99% 0.11 in 0 W/m2
03:25 51.6 °F 51.4 °F 29.8 in SW 19.7 mph 29.8 mph 99% 0.11 in 0 W/m2
03:30 51.8 °F 51.1 °F 29.8 in SW 17.4 mph 32.7 mph 97% 0.13 in 0 W/m2
03:35 51.4 °F 50.9 °F 29.8 in SW 13.6 mph 32.7 mph 98% 0.14 in 0 W/m2
03:40 51.1 °F 50.5 °F 29.8 in SW 14.5 mph 32.7 mph 98% 0.15 in 0 W/m2
03:45 50.7 °F 50.2 °F 29.8 in SW 17.4 mph 32.7 mph 98% 0.17 in 0 W/m2
03:50 50.4 °F 50.2 °F 29.8 in SW 13.6 mph 30.4 mph 99% 0.17 in 0 W/m2
03:55 50.5 °F 50.4 °F 29.9 in SW 19 mph 27.3 mph 99% 0.17 in 0 W/m2
04:00 50.5 °F 50.4 °F 29.9 in SW 19.7 mph 31.1 mph 99% 0.17 in 0 W/m2
04:05 50.4 °F 50.2 °F 29.9 in SW 13.6 mph 31.1 mph 99% 0.17 in 0 W/m2
04:10 50.4 °F 50.2 °F 29.9 in SW 19 mph 32.7 mph 99% 0.14 in 0 W/m2
04:15 50.4 °F 49.8 °F 29.9 in SW 18.3 mph 32.7 mph 98% 0.12 in 0 W/m2
04:20 50.7 °F 49.8 °F 29.9 in SW 20.6 mph 28.9 mph 97% 0.11 in 0 W/m2
04:25 51.1 °F 49.6 °F 29.9 in SW 15.2 mph 29.8 mph 95% 0.11 in 0 W/m2
04:30 51.4 °F 50.2 °F 29.8 in SW 15.9 mph 29.8 mph 95% 0.08 in 0 W/m2
04:35 51.4 °F 50.2 °F 29.9 in West 19.7 mph 33.6 mph 95% 0.06 in 0 W/m2
04:40 51.3 °F 49.6 °F 29.9 in WSW 22.1 mph 35.8 mph 94% 0.05 in 0 W/m2
04:45 50.7 °F 48.7 °F 29.9 in SW 12.1 mph 35.8 mph 93% 0.05 in 0 W/m2
04:50 50.9 °F 48.9 °F 29.9 in SW 18.3 mph 34.2 mph 93% 0.05 in 0 W/m2
04:55 51.1 °F 48.6 °F 29.9 in WSW 14.5 mph 34.2 mph 91% 0.04 in 0 W/m2
05:00 51.1 °F 48 °F 29.9 in WSW 15.2 mph 32 mph 89% 0.02 in 0 W/m2
05:03 50.7 °F 46.9 °F 29.9 in SW 13 mph 32 mph 87% 0.01 in 0 W/m2
05:08 50.7 °F 46.9 °F 29.9 in SW 19.7 mph 30.4 mph 87% 0.01 in 0 W/m2
05:13 50.9 °F 46.9 °F 29.9 in SW 21.3 mph 34.2 mph 86% 0.01 in 0 W/m2
05:18 50.4 °F 46.6 °F 29.9 in SW 22.8 mph 35.8 mph 87% 0.01 in 0 W/m2
05:23 50.7 °F 46.9 °F 29.9 in WSW 18.3 mph 35.8 mph 87% 0.01 in 0 W/m2
05:28 51.3 °F 47.1 °F 29.9 in WSW 22.8 mph 32.7 mph 86% 0.01 in 0 W/m2
05:33 51.6 °F 47.3 °F 29.9 in WSW 18.3 mph 32.7 mph 85% 0.02 in 0 W/m2
05:38 51.4 °F 47.1 °F 29.9 in SW 21.3 mph 32.7 mph 85% 0.02 in 0 W/m2
05:43 51.1 °F 47.5 °F 29.9 in SW 18.3 mph 34.2 mph 87% 0.01 in 0 W/m2
05:48 50.9 °F 47.1 °F 29.9 in SW 17.4 mph 34.2 mph 87% 0.01 in 0 W/m2
05:53 50.7 °F 46.8 °F 29.9 in SW 16.8 mph 37.4 mph 86% 0.02 in 0 W/m2
05:58 50.9 °F 46.6 °F 29.9 in WSW 23.5 mph 37.4 mph 85% 0.02 in 0 W/m2
06:03 51.1 °F 46 °F 29.9 in SW 18.3 mph 33.6 mph 83% 0.02 in 0 W/m2
06:08 51.1 °F 46.4 °F 29.9 in SW 19.7 mph 32 mph 84% 0.02 in 0 W/m2
06:13 50.5 °F 46.2 °F 29.9 in SW 15.2 mph 32.7 mph 85% 0.02 in 0 W/m2
06:18 50.2 °F 46.6 °F 29.9 in SW 11.4 mph 32.7 mph 87% 0.04 in 0 W/m2
06:23 50.2 °F 46.8 °F 29.9 in SW 19.7 mph 26.6 mph 88% 0.04 in 0 W/m2
06:28 50.7 °F 46.9 °F 29.9 in WSW 18.3 mph 30.4 mph 87% 0.04 in 0 W/m2
06:33 50.9 °F 47.1 °F 29.9 in WSW 9.2 mph 30.4 mph 87% 0.04 in 0 W/m2
06:38 50.5 °F 46.8 °F 29.9 in SW 19 mph 28.9 mph 87% 0.04 in 0 W/m2
06:43 50.4 °F 46.9 °F 29.9 in SW 16.8 mph 28.2 mph 88% 0.04 in 0 W/m2
06:48 50.5 °F 47.1 °F 29.9 in SW 15.2 mph 28.2 mph 88% 0.04 in 0 W/m2
06:53 51.1 °F 47.5 °F 29.9 in SW 15.9 mph 32.7 mph 87% 0.04 in 0 W/m2
06:58 50.7 °F 47.3 °F 29.9 in SW 15.2 mph 32.7 mph 88% 0.05 in 0 W/m2
07:03 50.5 °F 47.5 °F 29.9 in SW 12.1 mph 28.9 mph 89% 0.05 in 0 W/m2
07:08 50.9 °F 47.8 °F 29.9 in SW 12.1 mph 31.1 mph 89% 0.05 in 1 W/m2
07:13 50.9 °F 47.1 °F 29.9 in WSW 14.5 mph 31.1 mph 87% 0.05 in 0 W/m2
07:18 50.5 °F 46.8 °F 29.9 in WSW 12.1 mph 31.1 mph 87% 0.04 in 1 W/m2
07:23 50.7 °F 46.8 °F 29.9 in WSW 19.7 mph 27.3 mph 86% 0.05 in 2 W/m2
07:28 50.4 °F 46.2 °F 29.9 in SW 18.3 mph 27.3 mph 86% 0.05 in 5 W/m2
07:33 50.7 °F 46.8 °F 29.9 in WSW 16.8 mph 29.8 mph 86% 0.04 in 7 W/m2
07:38 50.9 °F 46.9 °F 30 in WSW 16.8 mph 29.8 mph 86% 0.04 in 9 W/m2
07:43 50.7 °F 46 °F 30 in WSW 19.7 mph 28.9 mph 84% 0.04 in 11 W/m2
07:48 50.4 °F 46 °F 30 in WSW 13.6 mph 29.8 mph 85% 0.04 in 15 W/m2
07:53 50.4 °F 46.6 °F 30 in WSW 15.9 mph 29.8 mph 87% 0.02 in 31 W/m2
07:58 50.4 °F 46.6 °F 30 in WSW 9.2 mph 28.2 mph 87% 0.01 in 34 W/m2
08:03 50.4 °F 46.9 °F 30 in WSW 16.8 mph 28.2 mph 88% 0.01 in 20 W/m2
08:08 50.4 °F 46.6 °F 30 in WSW 19.7 mph 33.6 mph 87% 0.01 in 19 W/m2
08:13 50.2 °F 46.6 °F 30 in WSW 19.7 mph 33.6 mph 87% 0.01 in 29 W/m2
08:18 49.8 °F 46.9 °F 30 in WSW 17.4 mph 32.7 mph 90% 0.01 in 35 W/m2
08:23 49.3 °F 47.1 °F 30 in WSW 17.4 mph 28.2 mph 92% 0.01 in 20 W/m2
08:28 49.3 °F 47.3 °F 30 in SW 12.1 mph 28.2 mph 93% 0.01 in 27 W/m2
08:33 49.5 °F 47.8 °F 30 in SSW 12.1 mph 28.2 mph 94% 0.01 in 33 W/m2
08:38 49.5 °F 47.8 °F 30 in SW 14.5 mph 25.9 mph 94% 0.02 in 28 W/m2
08:43 49.3 °F 47.8 °F 30 in SW 13.6 mph 25.9 mph 95% 0.04 in 32 W/m2
08:48 49.6 °F 48.6 °F 30 in SW 15.2 mph 27.3 mph 96% 0.04 in 52 W/m2
08:53 50 °F 48.4 °F 30 in WSW 15.9 mph 28.2 mph 94% 0.05 in 40 W/m2
08:58 50.4 °F 48.7 °F 30 in WSW 11.4 mph 28.2 mph 94% 0.05 in 50 W/m2
09:03 50.5 °F 48.9 °F 30 in WSW 15.9 mph 26.6 mph 94% 0.05 in 23 W/m2
09:08 50.4 °F 48.4 °F 30 in WSW 19 mph 32.7 mph 93% 0.05 in 60 W/m2
09:13 50.2 °F 48 °F 30 in SW 15.9 mph 32.7 mph 92% 0.05 in 47 W/m2
09:18 50.2 °F 48 °F 30 in SW 15.9 mph 28.2 mph 92% 0.05 in 57 W/m2
09:23 50.4 °F 47.8 °F 30 in WSW 16.8 mph 27.3 mph 91% 0.04 in 43 W/m2
09:28 50.5 °F 47.7 °F 30 in WSW 14.5 mph 27.3 mph 90% 0.05 in 49 W/m2
09:33 50.4 °F 47.5 °F 30 in SW 13 mph 31.1 mph 90% 0.06 in 64 W/m2
09:38 50.2 °F 48 °F 30 in SW 17.4 mph 31.1 mph 92% 0.06 in 55 W/m2
09:43 50.5 °F 48.6 °F 30 in SW 13 mph 23.5 mph 93% 0.05 in 90 W/m2
09:48 50.9 °F 48.7 °F 30 in SW 13 mph 25.9 mph 92% 0.05 in 93 W/m2
09:53 51.4 °F 48.6 °F 30 in SW 13 mph 28.2 mph 90% 0.04 in 119 W/m2
09:58 51.8 °F 48 °F 30 in WSW 17.4 mph 28.2 mph 87% 0.04 in 121 W/m2
10:03 51.6 °F 48.2 °F 30 in WNW 20.6 mph 29.8 mph 88% 0.04 in 122 W/m2
10:08 51.4 °F 48 °F 30 in WSW 20.6 mph 32.7 mph 88% 0.04 in 129 W/m2
10:13 51.6 °F 48.2 °F 30 in SW 14.5 mph 32.7 mph 88% 0.05 in 85 W/m2
10:18 51.4 °F 48.4 °F 30 in SW 13.6 mph 31.1 mph 89% 0.05 in 140 W/m2
10:23 51.4 °F 48.4 °F 30 in SW 12.1 mph 28.2 mph 89% 0.05 in 105 W/m2
10:28 51.4 °F 48.4 °F 30 in SW 17.4 mph 28.9 mph 89% 0.04 in 85 W/m2
10:47 50.9 °F 48.4 °F 30 in SW 17.4 mph 28.2 mph 91% 0.01 in 155 W/m2
10:52 51.8 °F 48.9 °F 30 in SW 14.5 mph 25.9 mph 90% 0.01 in 169 W/m2
10:57 52 °F 48.6 °F 30 in SW 16.8 mph 27.3 mph 88% 0.01 in 129 W/m2
11:02 51.6 °F 48.6 °F 30 in SW 16.8 mph 28.2 mph 89% 0.01 in 135 W/m2
11:07 51.4 °F 48.6 °F 30 in SW 9.8 mph 28.2 mph 90% 0.01 in 142 W/m2
11:12 51.4 °F 49.3 °F 30 in SW 17.4 mph 28.2 mph 92% 0.01 in 126 W/m2
11:17 51.1 °F 48.7 °F 30 in SW 15.9 mph 25.1 mph 92% 0.01 in 146 W/m2
11:22 51.6 °F 49.6 °F 30 in SW 10.7 mph 25.9 mph 93% 0.01 in 156 W/m2
11:27 51.4 °F 49.5 °F 30 in SW 11.4 mph 25.9 mph 93% 0.01 in 186 W/m2
11:32 51.6 °F 50 °F 30 in SW 14.5 mph 22.1 mph 94% 0.01 in 183 W/m2
11:37 51.8 °F 49.8 °F 30 in WSW 11.4 mph 21.3 mph 93% 0.01 in 222 W/m2
11:42 52.5 °F 50.4 °F 30 in WSW 11.4 mph 21.3 mph 92% 0.01 in 374 W/m2
11:47 52.9 °F 50.5 °F 30 in WSW 15.9 mph 23.5 mph 92% 0.01 in 162 W/m2
11:52 53.1 °F 50.5 °F 30 in WSW 11.4 mph 23.5 mph 91% 0.01 in 194 W/m2
11:57 52.9 °F 49.6 °F 30 in SW 13 mph 21.3 mph 89% 0.01 in 123 W/m2
12:02 52.3 °F 49.5 °F 30 in SW 15.9 mph 26.6 mph 90% 0.01 in 146 W/m2
12:07 52 °F 49.1 °F 30 in SW 9.2 mph 26.6 mph 90% 0.02 in 84 W/m2
12:12 52 °F 49.5 °F 30 in SW 13 mph 22.8 mph 91% 0.01 in 94 W/m2
12:17 52.2 °F 48.9 °F 30 in SW 18.3 mph 24.4 mph 89% 0.01 in 96 W/m2
12:22 52.2 °F 48.7 °F 30 in SW 10.7 mph 24.4 mph 88% 0.02 in 110 W/m2
12:27 52 °F 48.7 °F 30 in WSW 13 mph 24.4 mph 89% 0.02 in 88 W/m2
12:32 52 °F 49.1 °F 30 in WSW 11.4 mph 24.4 mph 90% 0.04 in 161 W/m2
12:37 52.2 °F 49.6 °F 30 in SW 9.8 mph 24.4 mph 91% 0.05 in 87 W/m2
12:42 52 °F 49.5 °F 30 in WSW 14.5 mph 24.4 mph 91% 0.05 in 86 W/m2
12:47 51.8 °F 49.3 °F 30 in SW 13 mph 24.4 mph 91% 0.06 in 85 W/m2
12:52 52.2 °F 49.3 °F 30 in SW 12.1 mph 24.4 mph 90% 0.06 in 94 W/m2
12:57 52.2 °F 48.9 °F 30 in SW 13 mph 28.9 mph 89% 0.06 in 154 W/m2
13:02 52.7 °F 49.3 °F 30 in SW 19.7 mph 28.9 mph 88% 0.06 in 186 W/m2
13:07 52.7 °F 48.9 °F 30 in SW 15.2 mph 28.2 mph 87% 0.05 in 214 W/m2
13:12 52.9 °F 49.1 °F 30 in SW 15.2 mph 26.6 mph 87% 0.05 in 194 W/m2
13:22 52.7 °F 49.3 °F 30 in WSW 14.5 mph 21.3 mph 88% 0.02 in 104 W/m2
13:45 52.7 °F 49.3 °F 30 in WSW 14.5 mph 21.3 mph 88% 0 in 104 W/m2
13:50 51.1 °F 50 °F 30.1 in SW 8.3 mph 18.3 mph 96% 0.05 in 71 W/m2
13:55 51.4 °F 50.4 °F 30.1 in SW 11.4 mph 24.4 mph 96% 0.05 in 82 W/m2
14:00 52 °F 50 °F 30.1 in SW 19 mph 29.8 mph 93% 0.05 in 121 W/m2
14:05 52 °F 49.6 °F 30.1 in SW 14.5 mph 29.8 mph 92% 0.05 in 130 W/m2
14:10 52 °F 49.6 °F 30.1 in SW 13 mph 29.8 mph 92% 0.05 in 103 W/m2
14:15 52.3 °F 49.8 °F 30.1 in SW 14.5 mph 26.6 mph 91% 0.05 in 83 W/m2
14:20 52.2 °F 49.3 °F 30.1 in SW 15.2 mph 29.8 mph 90% 0.05 in 59 W/m2
14:25 51.8 °F 49.6 °F 30.1 in SW 11.4 mph 29.8 mph 92% 0.06 in 74 W/m2
14:30 51.4 °F 49.8 °F 30.1 in SW 16.8 mph 23.5 mph 94% 0.07 in 71 W/m2
14:35 51.1 °F 49.6 °F 30.1 in SW 13.6 mph 25.9 mph 95% 0.08 in 72 W/m2
14:40 51.1 °F 49.6 °F 30.1 in SW 9.2 mph 25.9 mph 95% 0.08 in 69 W/m2
14:45 51.3 °F 50.2 °F 30.1 in SW 10.7 mph 19 mph 96% 0.08 in 81 W/m2
14:50 51.4 °F 50.5 °F 30.1 in SW 16.8 mph 24.4 mph 97% 0.05 in 85 W/m2
14:55 51.6 °F 50.7 °F 30.1 in SSW 15.2 mph 24.4 mph 97% 0.05 in 94 W/m2
15:00 51.6 °F 50.5 °F 30.1 in SW 9.8 mph 21.3 mph 96% 0.05 in 85 W/m2
15:05 52 °F 50.4 °F 30.1 in WSW 9.2 mph 20.6 mph 94% 0.05 in 94 W/m2
15:10 52.3 °F 50.4 °F 30.1 in SW 11.4 mph 19.7 mph 93% 0.05 in 158 W/m2
15:15 53.2 °F 51.1 °F 30.1 in SW 13.6 mph 21.3 mph 92% 0.05 in 250 W/m2
15:20 53.6 °F 50.2 °F 30.1 in SW 9.8 mph 21.3 mph 88% 0.05 in 75 W/m2
15:25 53.1 °F 49.8 °F 30.1 in SW 10.7 mph 21.3 mph 89% 0.04 in 88 W/m2
15:30 52.9 °F 50 °F 30.1 in SW 13 mph 21.3 mph 90% 0.02 in 38 W/m2
15:35 53.2 °F 50.7 °F 30.1 in SSW 11.4 mph 21.3 mph 91% 0.02 in 33 W/m2
15:40 51.8 °F 49.8 °F 30.1 in South 9.2 mph 22.8 mph 93% 0.02 in 34 W/m2
15:46 51.8 °F 49.8 °F 30.1 in South 20.6 mph 27.3 mph 93% 0.02 in 27 W/m2
15:51 51.8 °F 49.3 °F 30.1 in SSW 15.2 mph 29.8 mph 91% 0.02 in 45 W/m2
15:56 51.6 °F 49.5 °F 30.1 in SSW 13.6 mph 29.8 mph 92% 0.04 in 49 W/m2
16:01 51.4 °F 48.6 °F 30.1 in SSW 15.2 mph 28.2 mph 90% 0.04 in 45 W/m2
16:06 52 °F 48.2 °F 30.1 in SSW 14.5 mph 24.4 mph 87% 0.04 in 48 W/m2
16:11 52.9 °F 49.1 °F 30.1 in SW 9.8 mph 24.4 mph 87% 0.04 in 63 W/m2
16:16 52.9 °F 48.2 °F 30.1 in SW 13.6 mph 24.4 mph 84% 0.04 in 56 W/m2
16:21 53.4 °F 48 °F 30.1 in SW 16.8 mph 27.3 mph 82% 0.04 in 64 W/m2
16:26 53.4 °F 47.5 °F 30.1 in SW 15.9 mph 27.3 mph 80% 0.04 in 43 W/m2
16:31 54.1 °F 48.4 °F 30.1 in SW 16.8 mph 27.3 mph 81% 0.02 in 19 W/m2
16:37 53.2 °F 47.8 °F 30.1 in SW 13.6 mph 26.6 mph 82% 0.02 in 12 W/m2
16:42 53.2 °F 48.2 °F 30.1 in SW 9.2 mph 25.9 mph 83% 0.02 in 12 W/m2
16:47 52.5 °F 47.8 °F 30.1 in SW 10.7 mph 25.9 mph 84% 0.01 in 9 W/m2
16:52 52.5 °F 48 °F 30.1 in SW 11.4 mph 22.1 mph 85% 0.01 in 6 W/m2
16:57 52 °F 48.2 °F 30.1 in SSW 9.2 mph 19 mph 87% 0 in 4 W/m2
17:02 51.8 °F 48.9 °F 30.1 in SW 18.3 mph 25.1 mph 90% 0 in 3 W/m2
17:07 51.4 °F 48.9 °F 30.1 in SW 14.5 mph 25.1 mph 91% 0 in 1 W/m2
17:12 52.3 °F 49.3 °F 30.1 in SW 15.2 mph 23.5 mph 89% 0 in 0 W/m2
17:17 52 °F 48.6 °F 30.1 in SW 10.7 mph 25.1 mph 88% 0.01 in 0 W/m2
17:22 51.4 °F 49.3 °F 30.1 in SSW 11.4 mph 25.1 mph 92% 0.01 in 0 W/m2
17:27 50.7 °F 48.7 °F 30.1 in SSW 13 mph 19.7 mph 93% 0.01 in 0 W/m2
17:32 51.6 °F 49.6 °F 30.1 in SW 12.1 mph 22.1 mph 93% 0.01 in 0 W/m2
17:37 52 °F 49.5 °F 30.1 in SW 18.3 mph 24.4 mph 91% 0.01 in 0 W/m2
17:42 52 °F 49.1 °F 30.1 in SSW 18.3 mph 25.1 mph 90% 0.01 in 0 W/m2
17:47 50.5 °F 48.4 °F 30.1 in SW 9.8 mph 25.1 mph 92% 0.01 in 0 W/m2
17:52 51.8 °F 49.3 °F 30.1 in SW 12.1 mph 25.1 mph 91% 0.01 in 0 W/m2
17:57 51.6 °F 49.5 °F 30.1 in SW 15.2 mph 19.7 mph 92% 0.01 in 0 W/m2
18:02 51.4 °F 49.5 °F 30.1 in WSW 4.5 mph 19.7 mph 93% 0.01 in 0 W/m2
18:08 51.3 °F 49.3 °F 30.1 in SW 13 mph 25.9 mph 93% 0.02 in 0 W/m2
18:13 50.9 °F 49.3 °F 30.1 in SW 13 mph 25.9 mph 94% 0.02 in 0 W/m2
18:18 51.1 °F 49.6 °F 30.1 in SW 15.9 mph 25.1 mph 95% 0.02 in 0 W/m2
18:23 51.1 °F 50 °F 30.1 in SW 9.8 mph 24.4 mph 96% 0.02 in 0 W/m2
18:28 51.3 °F 49.8 °F 30.1 in SW 11.4 mph 22.8 mph 95% 0.02 in 0 W/m2
18:33 51.3 °F 49.8 °F 30.1 in SW 13 mph 19 mph 95% 0.02 in 0 W/m2
18:38 51.4 °F 50.2 °F 30.1 in SW 13 mph 19.7 mph 95% 0.02 in 0 W/m2
18:43 51.1 °F 49.5 °F 30.2 in SW 19.7 mph 26.6 mph 94% 0.02 in 0 W/m2
18:48 51.4 °F 49.8 °F 30.2 in SW 11.4 mph 26.6 mph 94% 0.02 in 0 W/m2
18:53 51.3 °F 49.8 °F 30.2 in SW 17.4 mph 26.6 mph 95% 0.02 in 0 W/m2
18:58 51.1 °F 50 °F 30.2 in SW 13.6 mph 23.5 mph 96% 0.02 in 0 W/m2
19:03 51.8 °F 50.4 °F 30.2 in SW 5.4 mph 23.5 mph 95% 0.01 in 0 W/m2
19:08 51.1 °F 49.6 °F 30.2 in SW 9.8 mph 20.6 mph 95% 0.01 in 0 W/m2
19:13 51.1 °F 49.6 °F 30.2 in SW 10.7 mph 21.3 mph 95% 0.02 in 0 W/m2
19:18 51.1 °F 50 °F 30.2 in SW 15.9 mph 22.1 mph 96% 0.01 in 0 W/m2
19:23 51.8 °F 50.4 °F 30.2 in SW 13 mph 24.4 mph 95% 0.01 in 0 W/m2
19:28 50.9 °F 50.2 °F 30.2 in SW 14.5 mph 24.4 mph 97% 0.01 in 0 W/m2
19:33 51.1 °F 50 °F 30.2 in SW 12.1 mph 19 mph 96% 0.01 in 0 W/m2
19:38 51.1 °F 49.6 °F 30.2 in SW 19 mph 24.4 mph 95% 0.02 in 0 W/m2
19:43 50.5 °F 49.3 °F 30.2 in SW 11.4 mph 24.4 mph 95% 0.02 in 0 W/m2
19:48 51.1 °F 49.6 °F 30.2 in SSW 9.2 mph 24.4 mph 95% 0.02 in 0 W/m2
19:53 51.3 °F 49.8 °F 30.2 in SW 12.1 mph 25.1 mph 95% 0.02 in 0 W/m2
19:58 51.4 °F 49.8 °F 30.2 in SSW 11.4 mph 25.1 mph 94% 0.02 in 0 W/m2
20:03 51.3 °F 48.9 °F 30.2 in SSW 18.3 mph 22.1 mph 92% 0.02 in 0 W/m2
20:08 51.4 °F 49.3 °F 30.2 in SW 14.5 mph 22.1 mph 92% 0.04 in 0 W/m2
20:13 51.1 °F 49.1 °F 30.2 in SW 11.4 mph 21.3 mph 93% 0.02 in 0 W/m2
20:18 51.3 °F 49.3 °F 30.2 in SW 13.6 mph 25.1 mph 93% 0.02 in 0 W/m2
20:23 50.5 °F 48.6 °F 30.2 in SW 14.5 mph 25.1 mph 93% 0.02 in 0 W/m2
20:28 51.3 °F 49.3 °F 30.2 in SW 9.8 mph 21.3 mph 93% 0.02 in 0 W/m2
20:33 51.6 °F 49.1 °F 30.2 in SW 14.5 mph 22.1 mph 91% 0.02 in 0 W/m2
20:38 52 °F 48.2 °F 30.2 in SW 13 mph 22.1 mph 87% 0.02 in 0 W/m2
20:43 52 °F 47.7 °F 30.2 in SW 16.8 mph 22.1 mph 85% 0.02 in 0 W/m2
20:48 52.3 °F 47.7 °F 30.2 in SW 17.4 mph 22.8 mph 84% 0.02 in 0 W/m2
20:53 52.3 °F 48 °F 30.2 in SW 10.7 mph 22.8 mph 85% 0.02 in 0 W/m2
20:58 52.2 °F 47.8 °F 30.2 in SW 16.8 mph 22.8 mph 85% 0.02 in 0 W/m2
21:03 52.3 °F 48 °F 30.2 in SW 7.6 mph 20.6 mph 85% 0.02 in 0 W/m2
21:08 52.2 °F 47.8 °F 30.2 in SW 12.1 mph 22.1 mph 85% 0.01 in 0 W/m2
21:13 52.3 °F 47.3 °F 30.2 in SW 12.1 mph 24.4 mph 83% 0.01 in 0 W/m2
21:18 52.3 °F 47.3 °F 30.2 in SW 15.2 mph 27.3 mph 83% 0.01 in 0 W/m2
21:23 52.3 °F 47.3 °F 30.2 in SW 19 mph 27.3 mph 83% 0.01 in 0 W/m2
21:28 52.3 °F 47.3 °F 30.2 in SSW 14.5 mph 24.4 mph 83% 0.01 in 0 W/m2
21:33 52.3 °F 47.7 °F 30.2 in SW 8.3 mph 22.8 mph 84% 0.01 in 0 W/m2
21:38 52.2 °F 47.5 °F 30.2 in SW 10.7 mph 19.7 mph 84% 0 in 0 W/m2
21:43 52.2 °F 47.5 °F 30.2 in WSW 14.5 mph 26.6 mph 84% 0 in 0 W/m2
21:48 52.2 °F 47.1 °F 30.2 in SW 12.1 mph 26.6 mph 83% 0 in 0 W/m2
21:53 52.2 °F 47.1 °F 30.2 in SW 12.1 mph 22.1 mph 83% 0 in 0 W/m2
21:58 52.2 °F 47.1 °F 30.2 in SW 13 mph 22.1 mph 83% 0 in 0 W/m2
22:03 52.2 °F 47.1 °F 30.2 in SW 15.2 mph 21.3 mph 83% 0 in 0 W/m2
22:08 52 °F 46.9 °F 30.2 in SW 10.7 mph 19.7 mph 83% 0 in 0 W/m2
22:13 52 °F 46.9 °F 30.2 in SW 13 mph 23.5 mph 83% 0 in 0 W/m2
22:18 52 °F 46.9 °F 30.2 in SW 10.7 mph 23.5 mph 83% 0 in 0 W/m2
22:23 52.2 °F 47.1 °F 30.2 in SW 9.2 mph 23.5 mph 83% 0 in 0 W/m2
22:28 52.2 °F 46.8 °F 30.2 in SW 8.3 mph 22.8 mph 82% 0 in 0 W/m2
22:33 52.2 °F 46.8 °F 30.2 in SW 15.2 mph 22.8 mph 82% 0 in 0 W/m2
22:38 52.2 °F 46.8 °F 30.2 in SW 13 mph 22.1 mph 82% 0 in 0 W/m2
22:43 52.2 °F 46.8 °F 30.2 in West 14.5 mph 21.3 mph 82% 0 in 0 W/m2
22:48 52 °F 46.8 °F 30.2 in West 8.3 mph 21.3 mph 82% 0 in 0 W/m2
22:53 51.8 °F 46.6 °F 30.2 in WSW 11.4 mph 20.6 mph 82% 0 in 0 W/m2
22:54 51.8 °F 46.6 °F 30.2 in WSW 9.8 mph 20.6 mph 82% 0 in 0 W/m2
23:14 51.8 °F 46.6 °F 30.2 in SW 10.7 mph 16.8 mph 82% 0 in 0 W/m2
23:19 52 °F 46.8 °F 30.2 in SW 11.4 mph 21.3 mph 82% 0 in 0 W/m2
23:24 52.2 °F 46.8 °F 30.2 in WSW 9.2 mph 24.4 mph 82% 0 in 0 W/m2
23:29 51.8 °F 46.2 °F 30.2 in WSW 15.2 mph 24.4 mph 81% 0 in 0 W/m2
23:35 51.8 °F 45.9 °F 30.2 in WSW 9.2 mph 21.3 mph 80% 0 in 0 W/m2
23:40 51.6 °F 46.6 °F 30.2 in West 10.7 mph 22.1 mph 83% 0 in 0 W/m2
23:45 51.8 °F 46.6 °F 30.2 in WSW 10.7 mph 22.1 mph 82% 0 in 0 W/m2
23:50 51.6 °F 46.6 °F 30.2 in WSW 11.4 mph 20.6 mph 83% 0 in 0 W/m2
23:55 51.6 °F 46.6 °F 30.2 in WSW 7.6 mph 20.6 mph 83% 0 in 0 W/m2
Northern Hawkes Bay. New Zealand Historic Data
Compliments of Weather Underground - 2 mb